Time;durP1;ratioP1;P1;durP2;ratioP2;P2;SDS_P1;SDS_P2;PMS_P1;PMS_P2;Temp;Humidity;BMP_temperature;BMP_pressure;BME280_temperature;BME280_humidity;BME280_pressure;Samples;Min_cycle;Max_cycle;Signal;HPM_P1;HPM_P2
2023/08/27 00:00:43;;;;;;;1.80;0.90;;;27.60;56.30;;;;;;5132809;28;20019;-65
2023/08/27 00:03:09;;;;;;;1.17;0.90;;;27.60;56.30;;;;;;5132796;28;20046;-65
2023/08/27 00:05:42;;;;;;;1.17;0.90;;;27.50;56.20;;;;;;5133477;28;20035;-65
2023/08/27 00:08:07;;;;;;;1.30;0.90;;;27.50;56.20;;;;;;5129343;28;20024;-65
2023/08/27 00:10:33;;;;;;;1.50;0.80;;;27.60;56.30;;;;;;5131651;28;20062;-65
2023/08/27 00:12:59;;;;;;;1.58;1.00;;;27.60;56.30;;;;;;5115481;28;20024;-65
2023/08/27 00:15:24;;;;;;;1.70;1.10;;;27.60;56.30;;;;;;5131122;28;20023;-65
2023/08/27 00:17:50;;;;;;;1.77;1.00;;;27.50;56.20;;;;;;5131274;28;20028;-65
2023/08/27 00:20:16;;;;;;;1.30;0.88;;;27.50;56.20;;;;;;5133770;27;20023;-64
2023/08/27 00:22:41;;;;;;;1.80;1.10;;;27.50;56.20;;;;;;5138181;27;20023;-65
2023/08/27 00:25:07;;;;;;;1.83;1.20;;;27.50;56.20;;;;;;5135400;27;20054;-64
2023/08/27 00:27:36;;;;;;;1.50;1.00;;;27.50;56.20;;;;;;5136281;27;20406;-65
2023/08/27 00:30:04;;;;;;;1.13;0.90;;;27.50;56.20;;;;;;5136022;27;20031;-64
2023/08/27 00:32:33;;;;;;;2.05;1.10;;;27.50;56.40;;;;;;5135043;27;20093;-65
2023/08/27 00:35:00;;;;;;;1.05;0.90;;;27.50;56.20;;;;;;5134623;27;20023;-65
2023/08/27 00:37:25;;;;;;;1.50;1.00;;;27.50;56.20;;;;;;5137412;27;20528;-65
2023/08/27 00:39:52;;;;;;;1.85;0.95;;;27.50;56.20;;;;;;5134997;27;20019;-67
2023/08/27 00:42:18;;;;;;;2.13;0.98;;;27.50;56.20;;;;;;5133042;27;20047;-67
2023/08/27 00:44:44;;;;;;;1.27;0.98;;;27.50;56.30;;;;;;5138301;27;20379;-67
2023/08/27 00:47:11;;;;;;;1.40;0.90;;;27.50;56.30;;;;;;5136275;27;20080;-67
2023/08/27 00:49:39;;;;;;;1.13;0.85;;;27.50;56.30;;;;;;5135760;27;20083;-62
2023/08/27 00:52:05;;;;;;;1.60;1.00;;;27.50;56.30;;;;;;5136578;27;20046;-63
2023/08/27 00:54:32;;;;;;;1.23;0.80;;;27.50;56.30;;;;;;5133236;27;20053;-63
2023/08/27 00:56:58;;;;;;;1.17;0.90;;;27.50;56.30;;;;;;5136053;27;20027;-64
2023/08/27 00:59:24;;;;;;;1.33;0.90;;;27.50;56.20;;;;;;5134993;27;20098;-62
2023/08/27 01:01:52;;;;;;;1.45;0.90;;;27.50;56.30;;;;;;5136396;27;20486;-62
2023/08/27 01:04:17;;;;;;;1.05;0.80;;;27.50;56.20;;;;;;5135629;27;20039;-62
2023/08/27 01:06:43;;;;;;;1.77;1.10;;;27.50;56.20;;;;;;5136222;27;20057;-63
2023/08/27 01:09:21;;;;;;;1.42;0.90;;;27.50;56.30;;;;;;5134534;27;20026;-63
2023/08/27 01:12:21;;;;;;;1.48;1.00;;;27.50;56.30;;;;;;5135105;27;20107;-63
2023/08/27 01:14:48;;;;;;;1.10;0.85;;;27.50;56.30;;;;;;5129339;27;20493;-61
2023/08/27 01:17:18;;;;;;;1.40;0.95;;;27.50;56.30;;;;;;5132052;27;20099;-64
2023/08/27 01:19:44;;;;;;;0.90;0.77;;;27.50;56.30;;;;;;5134332;27;20051;-62
2023/08/27 01:22:10;;;;;;;1.30;0.90;;;27.50;56.30;;;;;;5134755;27;20019;-65
2023/08/27 01:24:35;;;;;;;1.40;0.90;;;27.50;56.30;;;;;;5132271;27;20028;-62
2023/08/27 01:27:29;;;;;;;1.00;0.85;;;27.50;56.30;;;;;;5134965;27;20031;-61
2023/08/27 01:30:07;;;;;;;1.52;0.95;;;27.50;56.30;;;;;;5130006;27;20031;-64
2023/08/27 01:32:37;;;;;;;1.58;0.90;;;27.40;56.20;;;;;;5116491;27;20066;-64
2023/08/27 01:35:04;;;;;;;1.42;0.90;;;27.50;56.30;;;;;;5135666;27;20028;-64
2023/08/27 01:37:30;;;;;;;1.58;0.90;;;27.40;56.20;;;;;;5135912;27;20470;-64
2023/08/27 01:40:02;;;;;;;1.30;0.90;;;27.40;56.70;;;;;;5133513;27;20040;-65
2023/08/27 01:42:30;;;;;;;0.82;0.80;;;27.40;56.20;;;;;;5135517;27;20038;-65
2023/08/27 01:44:56;;;;;;;1.42;0.93;;;27.40;56.70;;;;;;5133486;27;20016;-65
2023/08/27 01:47:22;;;;;;;1.90;1.00;;;27.40;56.20;;;;;;5133446;27;20106;-64
2023/08/27 01:49:49;;;;;;;1.55;1.10;;;27.40;56.20;;;;;;5133719;27;20039;-62
2023/08/27 01:52:14;;;;;;;1.30;0.93;;;27.40;56.30;;;;;;5134811;27;20031;-62
2023/08/27 01:54:40;;;;;;;1.45;0.90;;;27.40;56.30;;;;;;5132994;27;20172;-62
2023/08/27 01:57:06;;;;;;;1.20;0.80;;;27.40;56.30;;;;;;5134885;27;20094;-62
2023/08/27 01:59:32;;;;;;;1.95;1.10;;;27.40;56.30;;;;;;5134555;27;20019;-62
2023/08/27 02:01:58;;;;;;;1.55;1.05;;;27.40;56.30;;;;;;5131708;27;20034;-62
2023/08/27 02:04:24;;;;;;;0.90;0.80;;;27.40;56.20;;;;;;5134157;27;20027;-62
2023/08/27 02:06:49;;;;;;;1.20;0.88;;;27.40;56.30;;;;;;5134435;27;20117;-62
2023/08/27 02:09:15;;;;;;;1.10;0.80;;;27.40;56.20;;;;;;5132281;27;20022;-62
2023/08/27 02:11:42;;;;;;;1.63;0.90;;;27.40;56.30;;;;;;5135334;27;20038;-63
2023/08/27 02:14:07;;;;;;;1.45;0.98;;;27.40;56.30;;;;;;5133153;27;20130;-63
2023/08/27 02:16:37;;;;;;;1.95;0.93;;;27.40;56.30;;;;;;5133152;27;20135;-62
2023/08/27 02:19:03;;;;;;;1.17;0.88;;;27.40;56.30;;;;;;5133720;27;20031;-63
2023/08/27 02:21:29;;;;;;;1.00;0.85;;;27.40;56.30;;;;;;5135731;27;20024;-64
2023/08/27 02:23:55;;;;;;;1.08;0.80;;;27.40;56.30;;;;;;5132588;27;20038;-61
2023/08/27 02:26:20;;;;;;;1.23;0.80;;;27.40;56.30;;;;;;5136628;27;20378;-62
2023/08/27 02:28:46;;;;;;;1.30;0.85;;;27.40;56.30;;;;;;5133942;27;20043;-62
2023/08/27 02:31:13;;;;;;;1.55;1.13;;;27.40;56.30;;;;;;5134290;27;20026;-65
2023/08/27 02:33:40;;;;;;;1.05;0.90;;;27.40;56.30;;;;;;5132857;27;20020;-62
2023/08/27 02:36:06;;;;;;;1.17;0.80;;;27.40;56.30;;;;;;5132977;27;20054;-62
2023/08/27 02:38:33;;;;;;;1.80;0.80;;;27.40;56.30;;;;;;5132151;27;20027;-61
2023/08/27 02:40:58;;;;;;;1.15;0.90;;;27.40;56.30;;;;;;5132924;27;20023;-66
2023/08/27 02:43:24;;;;;;;1.10;0.90;;;27.40;56.30;;;;;;5130695;27;20035;-65
2023/08/27 02:45:50;;;;;;;1.48;1.00;;;27.40;56.30;;;;;;5133016;27;20031;-66
2023/08/27 02:48:16;;;;;;;1.10;0.90;;;27.40;56.30;;;;;;5132575;27;20027;-65
2023/08/27 02:50:41;;;;;;;1.40;0.90;;;27.40;56.30;;;;;;5132099;27;20025;-64
2023/08/27 02:53:07;;;;;;;1.40;1.02;;;27.40;56.30;;;;;;5134092;27;20031;-65
2023/08/27 02:55:32;;;;;;;1.63;1.00;;;27.40;56.30;;;;;;5131227;27;20035;-65
2023/08/27 02:57:59;;;;;;;1.20;0.85;;;27.30;56.20;;;;;;5133677;27;20054;-65
2023/08/27 03:00:25;;;;;;;1.15;0.85;;;27.30;56.70;;;;;;5134160;27;20072;-67
2023/08/27 03:02:51;;;;;;;0.88;0.80;;;27.30;56.20;;;;;;5132911;27;20023;-66
2023/08/27 03:05:17;;;;;;;0.88;0.80;;;27.30;56.20;;;;;;5133859;27;20059;-68
2023/08/27 03:07:43;;;;;;;1.05;0.85;;;27.30;56.20;;;;;;5131914;27;20105;-68
2023/08/27 03:10:09;;;;;;;1.02;0.80;;;27.30;56.20;;;;;;5132759;27;20031;-68
2023/08/27 03:12:34;;;;;;;1.33;0.95;;;27.30;56.20;;;;;;5133814;27;20030;-68
2023/08/27 03:15:00;;;;;;;1.15;1.00;;;27.30;56.20;;;;;;5134445;27;20042;-68
2023/08/27 03:17:25;;;;;;;0.85;0.77;;;27.30;56.30;;;;;;5123610;27;20061;-68
2023/08/27 03:19:51;;;;;;;1.17;0.80;;;27.30;56.30;;;;;;5132225;27;20048;-68
2023/08/27 03:22:17;;;;;;;1.05;0.90;;;27.30;56.20;;;;;;5133812;27;20034;-68
2023/08/27 03:24:43;;;;;;;1.40;0.80;;;27.30;56.30;;;;;;5131340;27;20071;-67
2023/08/27 03:27:08;;;;;;;1.33;0.85;;;27.30;56.30;;;;;;5132589;27;20053;-68
2023/08/27 03:29:34;;;;;;;1.38;1.00;;;27.30;56.80;;;;;;5131645;27;20027;-68
2023/08/27 03:32:00;;;;;;;1.23;0.90;;;27.30;56.30;;;;;;5131641;27;20042;-68
2023/08/27 03:34:25;;;;;;;1.20;1.00;;;27.30;56.30;;;;;;5132109;27;20038;-68
2023/08/27 03:36:51;;;;;;;1.02;0.80;;;27.30;56.30;;;;;;5131475;27;20027;-69
2023/08/27 03:39:17;;;;;;;1.20;0.90;;;27.30;56.30;;;;;;5130763;27;20088;-68
2023/08/27 03:41:42;;;;;;;1.20;0.90;;;27.30;56.30;;;;;;5131103;27;20024;-66
2023/08/27 03:44:08;;;;;;;1.42;0.88;;;27.30;56.30;;;;;;5132282;27;20356;-68
2023/08/27 03:46:33;;;;;;;1.10;0.90;;;27.30;56.30;;;;;;5133860;27;20095;-69
2023/08/27 03:49:04;;;;;;;1.02;0.70;;;27.30;56.80;;;;;;5131888;27;20042;-68
2023/08/27 03:51:29;;;;;;;0.93;0.80;;;27.30;56.30;;;;;;5131941;27;20094;-64
2023/08/27 03:53:56;;;;;;;1.30;0.80;;;27.30;56.30;;;;;;5131361;27;20104;-62
2023/08/27 03:56:22;;;;;;;1.17;0.80;;;27.30;56.30;;;;;;5132396;27;20036;-63
2023/08/27 03:58:48;;;;;;;1.13;0.77;;;27.30;56.30;;;;;;5130743;28;20075;-62
2023/08/27 04:01:14;;;;;;;1.30;1.00;;;27.30;56.30;;;;;;5131637;28;20023;-62
2023/08/27 04:03:40;;;;;;;1.27;0.80;;;27.30;56.30;;;;;;5131301;28;20210;-61
2023/08/27 04:06:08;;;;;;;1.20;0.90;;;27.30;56.30;;;;;;5131564;28;20055;-61
2023/08/27 04:08:34;;;;;;;1.88;1.08;;;27.30;56.30;;;;;;5133315;28;20039;-62
2023/08/27 04:11:01;;;;;;;1.45;0.80;;;27.30;56.30;;;;;;5131287;28;20070;-69
2023/08/27 04:13:27;;;;;;;1.42;0.93;;;27.30;56.30;;;;;;5133855;28;20027;-69
2023/08/27 04:16:10;;;;;;;1.35;0.88;;;27.30;56.30;;;;;;5131497;28;20086;-67
2023/08/27 04:18:36;;;;;;;1.10;0.88;;;27.30;56.30;;;;;;5130738;28;20023;-68
2023/08/27 04:21:02;;;;;;;1.25;0.90;;;27.30;56.30;;;;;;5131115;28;20049;-68
2023/08/27 04:23:28;;;;;;;1.27;0.90;;;27.30;56.30;;;;;;5129881;28;20053;-67
2023/08/27 04:25:55;;;;;;;1.10;0.82;;;27.20;56.70;;;;;;5131366;28;20031;-68
2023/08/27 04:28:20;;;;;;;1.45;0.90;;;27.30;56.30;;;;;;5131356;28;20024;-68
2023/08/27 04:30:48;;;;;;;1.00;0.85;;;27.30;56.30;;;;;;5131062;28;20046;-68
2023/08/27 04:33:14;;;;;;;0.95;0.80;;;27.20;56.20;;;;;;5112763;28;20091;-68
2023/08/27 04:35:40;;;;;;;1.55;0.90;;;27.20;56.20;;;;;;5130057;28;20027;-68
2023/08/27 04:38:06;;;;;;;1.10;0.82;;;27.20;56.20;;;;;;5130735;28;20723;-68
2023/08/27 04:40:31;;;;;;;1.13;0.80;;;27.20;56.30;;;;;;5129724;28;20027;-69
2023/08/27 04:42:58;;;;;;;1.20;0.80;;;27.20;56.20;;;;;;5133895;28;20071;-69
2023/08/27 04:45:24;;;;;;;0.82;0.80;;;27.20;56.20;;;;;;5130833;28;20042;-70
2023/08/27 04:47:50;;;;;;;1.10;0.80;;;27.20;56.30;;;;;;5130334;28;20024;-70
2023/08/27 04:50:16;;;;;;;1.00;0.80;;;27.20;56.30;;;;;;5133944;28;20054;-68
2023/08/27 04:52:41;;;;;;;1.13;0.80;;;27.20;56.30;;;;;;5131005;28;20945;-69
2023/08/27 04:55:08;;;;;;;1.42;1.00;;;27.20;56.30;;;;;;5130122;28;20478;-69
2023/08/27 04:57:34;;;;;;;1.13;0.80;;;27.20;56.30;;;;;;5132694;28;20027;-68
2023/08/27 05:00:03;;;;;;;1.45;0.88;;;27.20;56.30;;;;;;5133223;28;20019;-69
2023/08/27 05:02:29;;;;;;;;;;;27.20;56.30;;;;;;5133388;28;20016;-69
2023/08/27 05:04:55;;;;;;;1.30;0.90;;;27.20;56.30;;;;;;5133315;27;19908;-69
2023/08/27 05:07:20;;;;;;;1.17;0.88;;;27.20;56.30;;;;;;5136192;27;20513;-70
2023/08/27 05:09:46;;;;;;;1.00;0.80;;;27.20;56.30;;;;;;5136690;27;20161;-71
2023/08/27 05:12:12;;;;;;;0.70;0.70;;;27.20;56.30;;;;;;5134631;27;20077;-69
2023/08/27 05:14:37;;;;;;;1.00;0.80;;;27.20;56.30;;;;;;5135185;27;20039;-69
2023/08/27 05:17:03;;;;;;;1.25;0.80;;;27.20;56.30;;;;;;5136383;27;20526;-70
2023/08/27 05:19:29;;;;;;;0.70;0.70;;;27.20;56.30;;;;;;5135513;27;20054;-62
2023/08/27 05:21:55;;;;;;;1.33;0.80;;;27.20;56.30;;;;;;5134925;27;20076;-62
2023/08/27 05:24:20;;;;;;;1.08;0.80;;;27.20;56.30;;;;;;5135355;27;20475;-63
2023/08/27 05:26:46;;;;;;;0.93;0.70;;;27.20;56.30;;;;;;5134044;27;20044;-63
2023/08/27 05:29:12;;;;;;;1.10;0.85;;;27.20;56.30;;;;;;5135475;27;20046;-64
2023/08/27 05:31:37;;;;;;;1.25;0.80;;;27.20;56.30;;;;;;5134782;27;20057;-64
2023/08/27 05:34:03;;;;;;;1.10;0.82;;;27.20;56.30;;;;;;5134762;27;20031;-64
2023/08/27 05:36:28;;;;;;;0.95;0.80;;;27.20;56.30;;;;;;5136580;27;20023;-64
2023/08/27 05:38:54;;;;;;;0.93;0.70;;;27.20;56.30;;;;;;5136804;27;20027;-64
2023/08/27 05:41:20;;;;;;;1.13;0.80;;;27.10;56.20;;;;;;5133252;27;20019;-64
2023/08/27 05:43:45;;;;;;;1.08;0.80;;;27.20;56.80;;;;;;5132788;27;20020;-65
2023/08/27 05:46:11;;;;;;;1.35;0.90;;;27.10;56.20;;;;;;5134257;27;20087;-64
2023/08/27 05:48:37;;;;;;;1.00;0.90;;;27.10;56.70;;;;;;5134927;27;20038;-64
2023/08/27 05:51:03;;;;;;;0.85;0.70;;;27.10;56.20;;;;;;5132663;27;20031;-64
2023/08/27 05:53:29;;;;;;;0.95;0.80;;;27.10;56.20;;;;;;5136004;27;20050;-64
2023/08/27 05:55:54;;;;;;;0.93;0.80;;;27.10;56.20;;;;;;5131520;27;20524;-64
2023/08/27 05:58:20;;;;;;;1.00;0.90;;;27.10;56.20;;;;;;5132752;27;20023;-64
2023/08/27 06:00:46;;;;;;;0.90;0.80;;;27.10;56.30;;;;;;5135353;27;20035;-64
2023/08/27 06:03:11;;;;;;;1.10;0.80;;;27.10;56.20;;;;;;5133880;27;20073;-64
2023/08/27 06:05:37;;;;;;;1.13;0.75;;;27.10;56.20;;;;;;5150919;27;20031;-64
2023/08/27 06:08:04;;;;;;;0.95;0.80;;;27.10;56.20;;;;;;5133014;27;20032;-64
2023/08/27 06:10:30;;;;;;;0.93;0.80;;;27.10;56.20;;;;;;5133769;27;20028;-67
2023/08/27 06:12:57;;;;;;;0.77;0.75;;;27.10;56.80;;;;;;5135411;27;20019;-68
2023/08/27 06:15:23;;;;;;;0.93;0.80;;;27.10;56.30;;;;;;5131684;27;20027;-69
2023/08/27 06:17:49;;;;;;;1.17;0.80;;;27.10;56.20;;;;;;5132729;27;20034;-69
2023/08/27 06:20:15;;;;;;;0.70;0.70;;;27.10;56.20;;;;;;5133760;27;20032;-68
2023/08/27 06:22:40;;;;;;;1.00;0.73;;;27.10;56.30;;;;;;5134004;27;20102;-69
2023/08/27 06:25:07;;;;;;;1.00;0.90;;;27.10;56.30;;;;;;5135740;27;20438;-69
2023/08/27 06:27:32;;;;;;;1.38;1.00;;;27.10;56.20;;;;;;5131944;27;20026;-69
2023/08/27 06:29:58;;;;;;;1.10;0.82;;;27.10;56.30;;;;;;5132401;27;20023;-69
2023/08/27 06:32:26;;;;;;;1.02;0.85;;;27.10;56.30;;;;;;5133750;27;20027;-69
2023/08/27 06:34:52;;;;;;;0.85;0.70;;;27.10;56.30;;;;;;5133196;27;20130;-69
2023/08/27 06:37:18;;;;;;;0.82;0.65;;;27.10;56.30;;;;;;5132813;27;20529;-68
2023/08/27 06:39:43;;;;;;;0.82;0.80;;;27.00;56.20;;;;;;5132471;27;20084;-67
2023/08/27 06:42:09;;;;;;;1.00;0.80;;;27.10;56.30;;;;;;5132706;27;20366;-67
2023/08/27 06:44:34;;;;;;;1.13;0.80;;;27.10;56.30;;;;;;5133719;27;20039;-69
2023/08/27 06:47:00;;;;;;;0.90;0.70;;;27.10;56.30;;;;;;5135284;27;20031;-67
2023/08/27 06:49:25;;;;;;;0.90;0.70;;;27.10;56.30;;;;;;5133771;27;20028;-68
2023/08/27 06:51:51;;;;;;;1.40;0.80;;;27.10;56.30;;;;;;5114318;27;20544;-66
2023/08/27 06:54:17;;;;;;;1.13;0.73;;;27.10;56.30;;;;;;5134275;27;20035;-66
2023/08/27 06:56:43;;;;;;;1.13;0.85;;;27.00;56.20;;;;;;5131795;27;20486;-67
2023/08/27 06:59:10;;;;;;;0.73;0.70;;;27.00;56.20;;;;;;5134079;27;20061;-67
2023/08/27 07:01:36;;;;;;;0.95;0.70;;;27.00;56.20;;;;;;5132385;27;20023;-67
2023/08/27 07:04:03;;;;;;;0.82;0.80;;;27.00;56.20;;;;;;5132209;27;20023;-67
2023/08/27 07:06:30;;;;;;;1.00;0.90;;;27.00;56.20;;;;;;5133411;27;20101;-67
2023/08/27 07:08:56;;;;;;;0.77;0.70;;;27.00;56.20;;;;;;5132053;27;20027;-67
2023/08/27 07:11:21;;;;;;;0.90;0.80;;;27.00;56.20;;;;;;5132486;27;20030;-68
2023/08/27 07:13:48;;;;;;;1.13;0.85;;;27.00;56.20;;;;;;5131953;27;20031;-66
2023/08/27 07:16:15;;;;;;;1.00;0.80;;;27.00;56.20;;;;;;5134223;27;20027;-66
2023/08/27 07:18:40;;;;;;;1.08;0.80;;;27.00;56.20;;;;;;5131917;27;20019;-67
2023/08/27 07:21:06;;;;;;;0.75;0.70;;;27.00;56.30;;;;;;5133191;27;20439;-69
2023/08/27 07:23:31;;;;;;;0.70;0.70;;;27.00;56.30;;;;;;5134818;27;20030;-69
2023/08/27 07:25:57;;;;;;;1.17;0.80;;;27.00;56.30;;;;;;5135104;27;20505;-69
2023/08/27 07:28:23;;;;;;;0.80;0.70;;;27.00;56.30;;;;;;5129605;27;20035;-70
2023/08/27 07:30:50;;;;;;;1.52;0.90;;;27.00;56.30;;;;;;5130869;27;20031;-69
2023/08/27 07:33:16;;;;;;;1.20;0.77;;;27.00;56.30;;;;;;5131744;27;20107;-67
2023/08/27 07:35:42;;;;;;;1.38;0.80;;;27.00;56.30;;;;;;5131430;27;20489;-69
2023/08/27 07:38:07;;;;;;;0.80;0.70;;;27.00;56.30;;;;;;5131981;27;20027;-69
2023/08/27 07:40:36;;;;;;;0.63;0.60;;;27.00;56.30;;;;;;5129066;27;20035;-68
2023/08/27 07:43:03;;;;;;;0.93;0.80;;;27.00;56.30;;;;;;5130369;27;20033;-67
2023/08/27 07:45:29;;;;;;;0.98;0.75;;;27.00;56.30;;;;;;5131075;27;20027;-68
2023/08/27 07:47:55;;;;;;;1.02;0.85;;;27.00;56.30;;;;;;5130174;27;20441;-67
2023/08/27 07:50:20;;;;;;;0.88;0.80;;;27.00;56.30;;;;;;5133762;27;20046;-64
2023/08/27 07:52:46;;;;;;;1.00;0.70;;;27.00;56.20;;;;;;5131269;27;20463;-64
2023/08/27 07:55:12;;;;;;;1.02;0.82;;;26.90;56.20;;;;;;5130141;27;20027;-63
2023/08/27 07:57:37;;;;;;;0.73;0.70;;;27.00;56.30;;;;;;5130751;28;20039;-64
2023/08/27 08:00:03;;;;;;;0.73;0.73;;;26.90;56.20;;;;;;5132672;27;20028;-64
2023/08/27 08:02:29;;;;;;;1.08;0.82;;;26.90;56.20;;;;;;5134464;28;20736;-63
2023/08/27 08:04:55;;;;;;;1.10;0.88;;;27.00;56.30;;;;;;5131891;28;20122;-64
2023/08/27 08:07:20;;;;;;;0.80;0.70;;;27.00;56.30;;;;;;5130676;28;20032;-65
2023/08/27 08:09:46;;;;;;;0.63;0.60;;;27.00;56.30;;;;;;5132064;28;20044;-65
2023/08/27 08:12:12;;;;;;;0.95;0.80;;;27.00;56.30;;;;;;5130733;28;20031;-64
2023/08/27 08:14:38;;;;;;;1.13;0.80;;;27.00;56.30;;;;;;5132138;28;20457;-63
2023/08/27 08:17:04;;;;;;;0.70;0.70;;;26.90;56.20;;;;;;5131953;28;20087;-64
2023/08/27 08:19:29;;;;;;;0.82;0.75;;;26.90;56.20;;;;;;5130223;28;20038;-63
2023/08/27 08:21:55;;;;;;;0.93;0.75;;;26.90;56.20;;;;;;5130033;28;20111;-63
2023/08/27 08:24:21;;;;;;;1.15;0.90;;;26.90;56.20;;;;;;5132420;28;20554;-64
2023/08/27 08:26:49;;;;;;;0.95;0.75;;;26.90;56.30;;;;;;5129544;28;20031;-64
2023/08/27 08:29:15;;;;;;;0.80;0.70;;;26.90;56.30;;;;;;5130607;28;20096;-63
2023/08/27 08:31:40;;;;;;;0.60;0.60;;;26.90;56.30;;;;;;5129060;28;20078;-63
2023/08/27 08:34:06;;;;;;;0.70;0.70;;;26.90;56.30;;;;;;5131657;28;20141;-63
2023/08/27 08:36:33;;;;;;;1.00;0.80;;;26.90;56.30;;;;;;5132080;28;20034;-64
2023/08/27 08:38:58;;;;;;;1.05;0.70;;;26.90;56.30;;;;;;5134415;28;20024;-62
2023/08/27 08:41:27;;;;;;;0.75;0.70;;;26.90;56.30;;;;;;5134625;27;20075;-62
2023/08/27 08:44:02;;;;;;;0.75;0.70;;;26.90;56.30;;;;;;5134488;27;20498;-63
2023/08/27 08:46:32;;;;;;;0.70;0.70;;;26.90;56.30;;;;;;5137435;27;20016;-62
2023/08/27 08:49:01;;;;;;;0.80;0.70;;;26.90;56.30;;;;;;5135810;27;20059;-62
2023/08/27 08:51:27;;;;;;;1.17;0.80;;;26.90;56.30;;;;;;5134705;27;20031;-66
2023/08/27 08:53:57;;;;;;;0.85;0.70;;;26.90;56.80;;;;;;5132318;27;20043;-67
2023/08/27 08:56:40;;;;;;;1.08;0.80;;;26.90;56.30;;;;;;5134110;27;20019;-67
2023/08/27 08:59:06;;;;;;;0.77;0.70;;;26.90;56.30;;;;;;5135693;27;20079;-66
2023/08/27 09:01:33;;;;;;;0.82;0.70;;;26.90;56.30;;;;;;5135300;27;20019;-62
2023/08/27 09:04:01;;;;;;;0.60;0.60;;;26.90;56.30;;;;;;5137092;27;20507;-61
2023/08/27 09:06:26;;;;;;;0.90;0.70;;;26.90;56.30;;;;;;5135491;27;20031;-63
2023/08/27 09:08:53;;;;;;;0.77;0.68;;;26.90;56.30;;;;;;5136563;27;20110;-63
2023/08/27 09:11:22;;;;;;;1.10;0.70;;;26.90;56.30;;;;;;5137672;27;20019;-62
2023/08/27 09:13:48;;;;;;;1.00;0.80;;;26.90;56.30;;;;;;5132560;27;20039;-62
2023/08/27 09:16:14;;;;;;;0.80;0.70;;;26.90;56.30;;;;;;5134960;27;20032;-62
2023/08/27 09:18:39;;;;;;;0.82;0.70;;;26.90;56.30;;;;;;5135300;27;20388;-61
2023/08/27 09:21:06;;;;;;;1.25;0.70;;;26.90;56.30;;;;;;5135233;27;20019;-62
2023/08/27 09:23:37;;;;;;;0.60;0.60;;;26.90;56.30;;;;;;5132797;27;20146;-65
2023/08/27 09:26:06;;;;;;;0.63;0.63;;;26.90;56.30;;;;;;5134216;27;20023;-63
2023/08/27 09:28:35;;;;;;;1.15;0.75;;;26.90;56.30;;;;;;5134660;27;20064;-65
2023/08/27 09:31:01;;;;;;;1.08;0.70;;;26.90;56.30;;;;;;5133027;27;20074;-63
2023/08/27 09:33:39;;;;;;;0.60;0.60;;;26.90;56.30;;;;;;5118857;27;20035;-62
2023/08/27 09:36:06;;;;;;;0.60;0.60;;;26.90;56.30;;;;;;5135925;27;20104;-62
2023/08/27 09:38:33;;;;;;;1.08;0.80;;;26.90;56.30;;;;;;5133883;27;20092;-61
2023/08/27 09:41:14;;;;;;;0.85;0.70;;;26.80;56.20;;;;;;5136442;27;20031;-66
2023/08/27 09:43:40;;;;;;;1.05;0.70;;;26.80;56.20;;;;;;5133089;27;20068;-67
2023/08/27 09:46:12;;;;;;;0.63;0.60;;;26.80;56.20;;;;;;5135993;27;20051;-66
2023/08/27 09:48:38;;;;;;;0.77;0.70;;;26.80;56.20;;;;;;5134337;27;20035;-66
2023/08/27 09:51:05;;;;;;;0.90;0.70;;;26.80;56.20;;;;;;5132411;27;20041;-66
2023/08/27 09:53:31;;;;;;;0.60;0.60;;;26.80;56.20;;;;;;5135810;27;20505;-67
2023/08/27 09:55:57;;;;;;;0.90;0.80;;;26.80;56.20;;;;;;5133275;27;20053;-66
2023/08/27 09:58:26;;;;;;;0.70;0.70;;;26.90;56.30;;;;;;5133361;27;20018;-66
2023/08/27 10:01:01;;;;;;;0.70;0.70;;;26.80;56.20;;;;;;5132807;27;20032;-65
2023/08/27 10:03:30;;;;;;;0.75;0.60;;;26.80;56.20;;;;;;5132960;27;20091;-67
2023/08/27 10:05:55;;;;;;;0.80;0.70;;;26.80;56.20;;;;;;5134253;27;20030;-67
2023/08/27 10:08:21;;;;;;;0.82;0.57;;;26.80;56.20;;;;;;5135252;27;20024;-67
2023/08/27 10:10:47;;;;;;;0.80;0.70;;;26.80;56.20;;;;;;5133507;27;20020;-68
2023/08/27 10:13:18;;;;;;;0.80;0.70;;;26.80;56.20;;;;;;5133178;27;20023;-68
2023/08/27 10:15:44;;;;;;;0.65;0.60;;;26.80;56.20;;;;;;5133027;27;20042;-68
2023/08/27 10:18:13;;;;;;;0.77;0.70;;;26.80;56.20;;;;;;5132655;27;20031;-68
2023/08/27 10:20:41;;;;;;;0.75;0.70;;;26.80;56.20;;;;;;5132413;27;20016;-68
2023/08/27 10:23:10;;;;;;;0.80;0.80;;;26.80;56.80;;;;;;5131935;27;20068;-68
2023/08/27 10:25:37;;;;;;;0.75;0.65;;;26.80;56.30;;;;;;5135763;27;20020;-68
2023/08/27 10:28:03;;;;;;;1.02;0.80;;;26.80;56.30;;;;;;5132478;27;20023;-68
2023/08/27 10:30:31;;;;;;;0.68;0.68;;;26.80;56.30;;;;;;5134824;27;20067;-67
2023/08/27 10:32:57;;;;;;;1.00;0.80;;;26.80;56.30;;;;;;5133817;27;20084;-68
2023/08/27 10:35:23;;;;;;;0.65;0.65;;;26.80;56.30;;;;;;5133338;27;20032;-68
2023/08/27 10:37:54;;;;;;;0.70;0.70;;;26.80;56.30;;;;;;5132095;27;20049;-67
2023/08/27 10:40:20;;;;;;;0.80;0.60;;;26.80;56.30;;;;;;5134244;27;20019;-66
2023/08/27 10:42:46;;;;;;;0.80;0.70;;;26.80;56.20;;;;;;5133320;27;20399;-67
2023/08/27 10:45:15;;;;;;;0.77;0.70;;;26.80;56.20;;;;;;5134732;27;20020;-68
2023/08/27 10:47:41;;;;;;;0.85;0.60;;;26.80;56.20;;;;;;5132741;27;20519;-68
2023/08/27 10:50:07;;;;;;;0.68;0.63;;;26.80;56.30;;;;;;5136285;27;20098;-67
2023/08/27 10:52:57;;;;;;;0.70;0.60;;;26.80;56.20;;;;;;5135021;27;20020;-64
2023/08/27 10:55:35;;;;;;;0.70;0.70;;;26.80;56.20;;;;;;5132568;27;20083;-64
2023/08/27 10:58:18;;;;;;;0.70;0.60;;;26.80;56.20;;;;;;5133236;27;20463;-63
2023/08/27 11:01:02;;;;;;;0.80;0.70;;;26.80;56.30;;;;;;5133839;27;20059;-64
2023/08/27 11:03:27;;;;;;;0.60;0.60;;;26.80;56.30;;;;;;5133249;27;20098;-65
2023/08/27 11:06:12;;;;;;;1.00;0.70;;;26.80;56.30;;;;;;5132038;27;20031;-64
2023/08/27 11:08:40;;;;;;;0.77;0.60;;;26.70;56.20;;;;;;5133165;27;20077;-65
2023/08/27 11:11:13;;;;;;;0.85;0.70;;;26.70;56.20;;;;;;5132457;27;20024;-63
2023/08/27 11:13:44;;;;;;;1.10;0.70;;;26.70;56.20;;;;;;5131231;27;20031;-64
2023/08/27 11:16:16;;;;;;;1.33;0.80;;;26.70;56.70;;;;;;5133108;27;20023;-62
2023/08/27 11:18:50;;;;;;;0.90;0.70;;;26.70;56.20;;;;;;5133356;27;20039;-63
2023/08/27 11:21:44;;;;;;;0.57;0.57;;;26.70;56.20;;;;;;5132346;27;20023;-62
2023/08/27 11:24:15;;;;;;;0.82;0.60;;;26.70;56.30;;;;;;5123913;27;20050;-62
2023/08/27 11:26:41;;;;;;;0.50;0.50;;;26.70;56.20;;;;;;5132560;27;20059;-62
2023/08/27 11:29:08;;;;;;;1.05;0.70;;;26.70;56.20;;;;;;5132560;27;20020;-62
2023/08/27 11:31:34;;;;;;;0.60;0.60;;;26.70;56.30;;;;;;5133873;27;20023;-65
2023/08/27 11:34:01;;;;;;;0.73;0.60;;;26.70;56.20;;;;;;5136025;27;20060;-63
2023/08/27 11:36:27;;;;;;;0.60;0.60;;;26.70;56.30;;;;;;5130949;27;20095;-62
2023/08/27 11:38:59;;;;;;;0.70;0.70;;;26.70;56.30;;;;;;5130976;27;20055;-62
2023/08/27 11:41:25;;;;;;;0.95;0.70;;;26.70;56.30;;;;;;5132057;27;20347;-63
2023/08/27 11:43:53;;;;;;;0.60;0.60;;;26.70;56.30;;;;;;5130912;27;20019;-64
2023/08/27 11:46:25;;;;;;;0.60;0.60;;;26.70;56.30;;;;;;5130775;27;20055;-63
2023/08/27 11:48:51;;;;;;;0.60;0.60;;;26.70;56.30;;;;;;5132664;27;20031;-63
2023/08/27 11:51:16;;;;;;;0.60;0.60;;;26.70;56.30;;;;;;5132509;27;20039;-62
2023/08/27 11:53:44;;;;;;;0.80;0.70;;;26.70;56.30;;;;;;5132486;27;20111;-66
2023/08/27 11:56:11;;;;;;;0.80;0.63;;;26.70;56.30;;;;;;5133240;27;20534;-61
2023/08/27 11:58:39;;;;;;;0.73;0.55;;;26.70;56.30;;;;;;5131652;28;20027;-64
2023/08/27 12:01:06;;;;;;;0.50;0.50;;;26.70;56.30;;;;;;5130463;27;20022;-63
2023/08/27 12:03:33;;;;;;;0.70;0.70;;;26.70;56.30;;;;;;5132073;28;20027;-63
2023/08/27 12:05:58;;;;;;;0.65;0.63;;;26.70;56.20;;;;;;5125778;28;20088;-63
2023/08/27 12:08:24;;;;;;;0.60;0.60;;;26.70;56.20;;;;;;5130536;28;20074;-64
2023/08/27 12:10:51;;;;;;;1.20;0.80;;;26.70;56.30;;;;;;5131165;28;20444;-62
2023/08/27 12:13:16;;;;;;;0.90;0.63;;;26.70;56.20;;;;;;5130145;28;20019;-64
2023/08/27 12:15:43;;;;;;;0.73;0.70;;;26.70;56.20;;;;;;5134353;27;20052;-61
2023/08/27 12:18:09;;;;;;;0.75;0.68;;;26.70;56.20;;;;;;5132572;27;20031;-63
2023/08/27 12:20:36;;;;;;;0.98;0.70;;;26.70;56.20;;;;;;5134302;27;20110;-64
2023/08/27 12:23:12;;;;;;;0.57;0.57;;;26.70;56.20;;;;;;5135946;27;20066;-63
2023/08/27 12:25:54;;;;;;;0.90;0.70;;;26.70;56.20;;;;;;5134441;27;20079;-63
2023/08/27 12:28:21;;;;;;;0.70;0.70;;;26.70;56.20;;;;;;5135829;27;20051;-61
2023/08/27 12:30:54;;;;;;;0.80;0.70;;;26.60;56.20;;;;;;5134060;27;20028;-62
2023/08/27 12:33:34;;;;;;;0.77;0.70;;;26.60;56.20;;;;;;5135726;27;20059;-65
2023/08/27 12:36:04;;;;;;;0.80;0.70;;;26.60;56.20;;;;;;5136918;27;20027;-66
2023/08/27 12:38:30;;;;;;;0.75;0.70;;;26.60;56.20;;;;;;5137297;27;20407;-65
2023/08/27 12:40:55;;;;;;;0.70;0.70;;;26.60;56.20;;;;;;5117215;27;20038;-66
2023/08/27 12:43:21;;;;;;;0.65;0.60;;;26.60;56.20;;;;;;5136892;27;20035;-66
2023/08/27 12:45:47;;;;;;;0.60;0.60;;;26.60;56.20;;;;;;5133102;27;20030;-65
2023/08/27 12:48:12;;;;;;;1.00;0.80;;;26.60;56.20;;;;;;5135061;27;20032;-66